createdAt,value
2022-09-23T00:01:37.563Z,101764.53
2022-09-23T00:06:59.248Z,101753.19
2022-09-23T00:12:20.823Z,101753.91
2022-09-23T00:17:43.322Z,101747.75
2022-09-23T00:23:04.928Z,101747.13
2022-09-23T00:28:28.548Z,101737.59
2022-09-23T00:33:53.696Z,101734.91
2022-09-23T00:39:15.316Z,101736.03
2022-09-23T00:44:46.240Z,101737.81
2022-09-23T00:50:12.332Z,101719.81
2022-09-23T00:55:38.451Z,101724.94
2022-09-23T01:01:00.536Z,101730.28
2022-09-23T01:06:22.896Z,101724.34
2022-09-23T01:11:49.341Z,101713.31
2022-09-23T01:17:14.573Z,101710.00
2022-09-23T01:22:41.926Z,101714.34
2022-09-23T01:28:29.040Z,101702.16
2022-09-23T01:33:54.338Z,101710.88
2022-09-23T01:39:21.237Z,101706.50
2022-09-23T01:44:46.899Z,101697.84
2022-09-23T01:50:29.081Z,101690.94
2022-09-23T01:55:56.508Z,101688.34
2022-09-23T02:01:21.456Z,101679.72
2022-09-23T02:06:46.825Z,101676.25
2022-09-23T02:12:11.996Z,101663.22
2022-09-23T02:17:36.593Z,101664.88
2022-09-23T02:23:02.555Z,101664.25
2022-09-23T02:28:30.505Z,101658.19
2022-09-23T02:33:55.222Z,101636.38
2022-09-23T02:39:17.893Z,101642.47
2022-09-23T02:44:39.871Z,101635.53
2022-09-23T02:50:01.587Z,101635.63
2022-09-23T02:55:25.208Z,101626.88
2022-09-23T03:00:50.784Z,101620.00
2022-09-23T03:06:21.787Z,101632.19
2022-09-23T03:11:46.839Z,101617.56
2022-09-23T03:17:15.208Z,101612.38
2022-09-23T03:22:40.548Z,101614.97
2022-09-23T03:28:03.328Z,101610.69
2022-09-23T03:33:28.836Z,101601.91
2022-09-23T03:38:57.358Z,101604.34
2022-09-23T03:44:20.631Z,101601.72
2022-09-23T03:49:43.476Z,101599.88
2022-09-23T03:55:05.997Z,101592.00
2022-09-23T04:00:28.316Z,101588.53
2022-09-23T04:05:49.895Z,101586.03
2022-09-23T04:11:11.514Z,101576.63
2022-09-23T04:16:33.828Z,101577.41
2022-09-23T04:21:55.554Z,101565.84
2022-09-23T04:27:17.177Z,101563.16
2022-09-23T04:32:39.555Z,101563.78
2022-09-23T04:38:01.137Z,101568.91
2022-09-23T04:43:22.942Z,101553.94
2022-09-23T04:48:45.210Z,101549.78
2022-09-23T04:54:06.899Z,101555.69
2022-09-23T04:59:29.432Z,101563.47
2022-09-23T05:04:51.724Z,101568.72
2022-09-23T05:10:13.638Z,101560.06
2022-09-23T05:15:35.311Z,101558.34
2022-09-23T05:20:57.889Z,101562.53
2022-09-23T05:26:20.223Z,101550.31
2022-09-23T05:31:41.910Z,101562.31
2022-09-23T05:37:04.540Z,101565.75
2022-09-23T05:42:27.555Z,101565.78
2022-09-23T05:47:49.243Z,101562.28
2022-09-23T05:53:11.585Z,101561.34
2022-09-23T05:58:33.356Z,101556.94
2022-09-23T06:03:56.238Z,101561.31
2022-09-23T06:09:18.557Z,101568.09
2022-09-23T06:14:40.463Z,101563.88
2022-09-23T06:20:02.068Z,101559.38
2022-09-23T06:25:24.409Z,101562.97
2022-09-23T06:30:46.450Z,101564.81
2022-09-23T06:36:08.627Z,101569.75
2022-09-23T06:41:30.928Z,101570.63
2022-09-23T06:46:53.246Z,101575.84
2022-09-23T06:52:14.930Z,101576.81
2022-09-23T06:57:37.195Z,101570.84
2022-09-23T07:02:58.915Z,101577.81
2022-09-23T07:08:20.627Z,101570.69
2022-09-23T07:13:42.948Z,101571.41
2022-09-23T07:19:04.692Z,101570.41
2022-09-23T07:24:27.192Z,101567.72
2022-09-23T07:29:50.302Z,101577.91
2022-09-23T07:35:11.944Z,101576.00
2022-09-23T07:40:33.668Z,101575.91
2022-09-23T07:45:56.253Z,101572.25
2022-09-23T07:51:19.902Z,101574.50
2022-09-23T07:56:42.219Z,101579.25
2022-09-23T08:02:04.837Z,101569.81
2022-09-23T08:07:26.798Z,101587.00
2022-09-23T08:12:48.406Z,101587.66
2022-09-23T08:18:10.734Z,101585.56
2022-09-23T08:23:33.184Z,101583.97
2022-09-23T08:28:55.720Z,101587.19
2022-09-23T08:34:19.315Z,101576.75
2022-09-23T08:39:40.951Z,101581.31
2022-09-23T08:45:05.331Z,101578.81
2022-09-23T08:50:31.195Z,101580.38
2022-09-23T08:55:54.498Z,101578.41
2022-09-23T09:01:22.708Z,101574.75
2022-09-23T09:06:53.477Z,101578.88
2022-09-23T09:12:18.046Z,101570.06
2022-09-23T09:17:47.439Z,101575.53
2022-09-23T09:23:19.746Z,101571.78
2022-09-23T09:28:44.874Z,101574.56
2022-09-23T09:34:16.143Z,101559.78
2022-09-23T09:39:38.431Z,101566.56
2022-09-23T09:45:01.719Z,101567.47
2022-09-23T09:50:42.507Z,101561.25
2022-09-23T09:56:06.938Z,101553.28
2022-09-23T10:01:30.240Z,101546.81
2022-09-23T10:07:13.414Z,101542.94
2022-09-23T10:12:43.510Z,101552.38
2022-09-23T10:18:18.874Z,101549.50
2022-09-23T10:23:42.137Z,101543.31
2022-09-23T10:29:20.300Z,101548.59
2022-09-23T10:34:43.974Z,101543.38
2022-09-23T10:40:39.250Z,101545.97
2022-09-23T10:46:22.019Z,101544.06
2022-09-23T10:51:50.780Z,101538.59
2022-09-23T10:57:39.828Z,101542.78
2022-09-23T11:03:15.226Z,101540.47
2022-09-23T11:08:53.493Z,101541.75
2022-09-23T11:14:38.011Z,101538.91
2022-09-23T11:20:15.618Z,101526.00
2022-09-23T11:25:43.125Z,101521.50
2022-09-23T11:31:14.873Z,101519.59
2022-09-23T11:36:40.567Z,101506.53
2022-09-23T11:42:02.813Z,101505.13
2022-09-23T11:47:28.608Z,101498.31
2022-09-23T11:52:57.836Z,101491.22
2022-09-23T11:58:25.925Z,101490.56
2022-09-23T12:03:51.722Z,101487.19
2022-09-23T12:09:31.026Z,101474.09
2022-09-23T12:15:04.543Z,101473.72
2022-09-23T12:20:44.828Z,101475.75
2022-09-23T12:26:09.085Z,101476.31
2022-09-23T12:31:33.046Z,101474.41
2022-09-23T12:37:04.259Z,101462.56
2022-09-23T12:42:30.807Z,101465.06
2022-09-23T12:47:52.962Z,101450.53
2022-09-23T12:53:54.613Z,101452.56
2022-09-23T12:59:27.349Z,101441.84
2022-09-23T13:05:14.143Z,101431.78
2022-09-23T13:10:41.834Z,101421.34
2022-09-23T13:16:20.255Z,101428.75
2022-09-23T13:22:12.337Z,101422.19
2022-09-23T13:27:35.357Z,101419.84
2022-09-23T13:33:05.090Z,101414.94
2022-09-23T13:38:30.797Z,101411.78
2022-09-23T13:43:55.220Z,101408.88
2022-09-23T13:49:23.628Z,101419.16
2022-09-23T13:54:48.343Z,101416.94
2022-09-23T14:00:17.065Z,101422.34
2022-09-23T14:05:39.510Z,101416.66
2022-09-23T14:11:04.399Z,101411.16
2022-09-23T14:16:27.335Z,101409.38
2022-09-23T14:21:50.620Z,101406.25
2022-09-23T14:27:15.115Z,101371.22
2022-09-23T14:32:39.204Z,101406.03
2022-09-23T14:38:19.619Z,101395.41
2022-09-23T14:43:46.876Z,101394.41
2022-09-23T14:49:16.002Z,101390.06
2022-09-23T14:54:41.771Z,101393.50
2022-09-23T15:00:13.593Z,101392.69
2022-09-23T15:05:40.997Z,101395.75
2022-09-23T15:11:07.811Z,101402.91
2022-09-23T15:16:30.532Z,101401.06
2022-09-23T15:21:53.560Z,101402.47
2022-09-23T15:27:30.432Z,101392.91
2022-09-23T15:32:52.895Z,101394.66
2022-09-23T15:38:16.711Z,101388.78
2022-09-23T15:43:41.083Z,101388.84
2022-09-23T15:49:05.223Z,101378.56
2022-09-23T15:54:27.380Z,101370.63
2022-09-23T15:59:49.651Z,101374.66
2022-09-23T16:05:17.727Z,101366.94
2022-09-23T16:10:39.811Z,101361.78
2022-09-23T16:16:02.269Z,101368.16
2022-09-23T16:21:25.828Z,101353.94
2022-09-23T16:26:47.913Z,101366.06
2022-09-23T16:32:10.338Z,101363.16
2022-09-23T16:37:31.986Z,101360.44
2022-09-23T16:42:55.145Z,101369.03
2022-09-23T16:48:18.977Z,101371.72
2022-09-23T16:53:41.680Z,101370.94
2022-09-23T16:59:03.926Z,101380.69
2022-09-23T17:04:26.848Z,101384.03
2022-09-23T17:09:49.915Z,101384.16
2022-09-23T17:15:12.132Z,101378.84
2022-09-23T17:20:34.894Z,101388.56
2022-09-23T17:25:57.051Z,101380.94
2022-09-23T17:31:18.739Z,101384.28
2022-09-23T17:36:41.351Z,101386.00
2022-09-23T17:42:03.533Z,101380.56
2022-09-23T17:47:25.415Z,101377.25
2022-09-23T17:52:47.756Z,101375.22
2022-09-23T17:58:09.633Z,101374.00
2022-09-23T18:03:31.751Z,101380.00
2022-09-23T18:08:55.221Z,101374.25
2022-09-23T18:14:18.090Z,101374.06
2022-09-23T18:19:39.738Z,101372.28
2022-09-23T18:25:17.372Z,101371.84
2022-09-23T18:30:52.303Z,101373.22
2022-09-23T18:36:13.894Z,101377.22
2022-09-23T18:41:36.255Z,101367.38
2022-09-23T18:46:57.926Z,101366.25
2022-09-23T18:52:20.348Z,101361.19
2022-09-23T18:57:42.639Z,101363.09
2022-09-23T19:03:04.292Z,101365.38
2022-09-23T19:08:26.063Z,101362.50
2022-09-23T19:13:53.396Z,101363.81
2022-09-23T19:19:15.019Z,101361.25
2022-09-23T19:24:36.614Z,101355.72
2022-09-23T19:29:59.055Z,101348.88
2022-09-23T19:35:20.627Z,101350.72
2022-09-23T19:40:45.454Z,101349.50
2022-09-23T19:46:10.008Z,101354.53
2022-09-23T19:51:33.243Z,101341.81
2022-09-23T19:56:54.939Z,101348.81
2022-09-23T20:02:17.287Z,101353.59
2022-09-23T20:07:40.586Z,101331.06
2022-09-23T20:13:02.356Z,101336.38
2022-09-23T20:18:24.759Z,101330.31
2022-09-23T20:23:46.409Z,101333.88
2022-09-23T20:29:09.902Z,101335.78
2022-09-23T20:34:32.885Z,101336.38
2022-09-23T20:39:54.503Z,101316.19
2022-09-23T20:45:17.006Z,101329.19
2022-09-23T20:50:41.127Z,101322.63
2022-09-23T20:56:05.153Z,101324.25
2022-09-23T21:01:26.951Z,101324.31
2022-09-23T21:06:49.279Z,101313.84
2022-09-23T21:12:10.966Z,101311.09
2022-09-23T21:17:32.799Z,101304.53
2022-09-23T21:22:56.433Z,101310.66
2022-09-23T21:28:18.193Z,101305.44
2022-09-23T21:33:40.063Z,101305.09
2022-09-23T21:39:02.579Z,101307.44
2022-09-23T21:44:24.740Z,101312.75
2022-09-23T21:49:50.678Z,101308.59
2022-09-23T21:55:13.468Z,101297.91
2022-09-23T22:00:35.204Z,101300.53
2022-09-23T22:06:02.115Z,101297.84
2022-09-23T22:11:43.169Z,101300.22
2022-09-23T22:17:06.177Z,101292.06
2022-09-23T22:22:27.814Z,101289.50
2022-09-23T22:28:08.172Z,101286.03
2022-09-23T22:33:29.815Z,101292.41
2022-09-23T22:38:58.867Z,101273.19
2022-09-23T22:44:21.667Z,101284.22
2022-09-23T22:49:43.319Z,101282.44
2022-09-23T22:55:07.149Z,101264.00
2022-09-23T23:00:29.813Z,101265.16
2022-09-23T23:05:52.244Z,101258.63
2022-09-23T23:11:13.868Z,101260.44
2022-09-23T23:16:36.461Z,101249.00
2022-09-23T23:21:58.090Z,101248.03
2022-09-23T23:27:19.920Z,101246.63
2022-09-23T23:32:42.181Z,101256.00
2022-09-23T23:38:05.050Z,101239.44
2022-09-23T23:43:26.670Z,101250.22
2022-09-23T23:48:48.912Z,101255.84
2022-09-23T23:54:11.132Z,101251.59
2022-09-23T23:59:33.599Z,101250.59
